createdAt,value
2019-01-21T00:02:21.942Z,15.40
2019-01-21T00:07:51.598Z,15.10
2019-01-21T00:10:26.953Z,15.20
2019-01-21T00:13:05.425Z,15.10
2019-01-21T00:15:47.667Z,14.90
2019-01-21T00:18:22.351Z,14.90
2019-01-21T00:20:59.705Z,14.80
2019-01-21T00:23:36.472Z,14.80
2019-01-21T00:26:17.727Z,14.70
2019-01-21T00:28:53.561Z,14.60
2019-01-21T00:31:27.254Z,14.50
2019-01-21T00:34:17.433Z,14.40
2019-01-21T00:36:53.755Z,14.40
2019-01-21T00:39:27.350Z,14.30
2019-01-21T00:42:01.216Z,14.30
2019-01-21T00:44:34.819Z,14.30
2019-01-21T00:47:08.784Z,14.20
2019-01-21T00:49:43.325Z,14.10
2019-01-21T00:52:19.501Z,14.10
2019-01-21T00:54:53.248Z,14.00
2019-01-21T00:57:28.268Z,14.00
2019-01-21T01:00:03.089Z,13.90
2019-01-21T01:02:37.088Z,13.80
2019-01-21T01:05:12.154Z,13.80
2019-01-21T01:07:45.856Z,13.70
2019-01-21T01:10:20.616Z,13.70
2019-01-21T01:12:54.080Z,13.60
2019-01-21T01:15:27.630Z,13.60
2019-01-21T01:18:02.356Z,13.60
2019-01-21T01:20:36.420Z,13.50
2019-01-21T01:23:09.927Z,13.40
2019-01-21T01:25:43.545Z,13.40
2019-01-21T01:28:17.255Z,13.30
2019-01-21T01:30:51.009Z,13.30
2019-01-21T01:33:25.912Z,13.20
2019-01-21T01:35:59.616Z,13.10
2019-01-21T01:38:34.595Z,13.10
2019-01-21T01:41:20.951Z,13.00
2019-01-21T01:43:54.568Z,13.00
2019-01-21T01:46:30.820Z,13.00
2019-01-21T01:49:04.936Z,13.00
2019-01-21T01:51:39.360Z,13.00
2019-01-21T01:54:12.991Z,12.90
2019-01-21T01:56:46.558Z,13.00
2019-01-21T01:59:20.332Z,13.00
2019-01-21T02:01:57.486Z,12.90
2019-01-21T02:04:31.087Z,12.90
2019-01-21T02:07:05.662Z,12.80
2019-01-21T02:10:03.297Z,12.80
2019-01-21T02:12:37.066Z,12.80
2019-01-21T02:15:12.547Z,12.80
2019-01-21T02:17:52.062Z,12.80
2019-01-21T02:20:21.419Z,12.80
2019-01-21T02:22:58.731Z,12.80
2019-01-21T02:25:56.331Z,12.80
2019-01-21T02:29:10.402Z,12.80
2019-01-21T02:32:17.045Z,12.80
2019-01-21T02:35:38.483Z,12.80
2019-01-21T02:39:05.846Z,12.80
2019-01-21T02:42:05.388Z,12.80
2019-01-21T02:45:19.587Z,12.80
2019-01-21T02:48:30.165Z,12.80
2019-01-21T02:51:48.948Z,12.80
2019-01-21T02:54:48.264Z,12.70
2019-01-21T02:57:30.527Z,12.70
2019-01-21T03:00:40.243Z,12.70
2019-01-21T03:03:51.242Z,12.70
2019-01-21T03:07:08.876Z,12.70
2019-01-21T03:10:06.757Z,12.70
2019-01-21T03:13:15.469Z,12.70
2019-01-21T03:16:30.016Z,12.60
2019-01-21T03:19:45.900Z,12.60
2019-01-21T03:22:51.713Z,12.50
2019-01-21T03:26:16.330Z,12.50
2019-01-21T03:29:14.912Z,12.50
2019-01-21T03:32:21.994Z,12.50
2019-01-21T03:35:47.313Z,12.50
2019-01-21T03:42:14.426Z,12.60
2019-01-21T03:45:46.597Z,12.60
2019-01-21T03:48:30.417Z,12.70
2019-01-21T03:51:51.502Z,12.60
2019-01-21T03:54:38.044Z,12.60
2019-01-21T03:58:05.659Z,12.60
2019-01-21T04:01:12.538Z,12.50
2019-01-21T04:04:18.494Z,12.50
2019-01-21T04:06:59.276Z,12.50
2019-01-21T04:10:20.256Z,12.50
2019-01-21T04:13:17.953Z,12.50
2019-01-21T04:16:29.347Z,12.50
2019-01-21T04:19:41.863Z,12.40
2019-01-21T04:22:42.644Z,12.40
2019-01-21T04:25:58.096Z,12.40
2019-01-21T04:29:20.717Z,12.40
2019-01-21T04:32:06.180Z,12.30
2019-01-21T04:35:14.581Z,12.30
2019-01-21T04:38:49.260Z,12.30
2019-01-21T04:41:48.822Z,12.20
2019-01-21T04:44:55.017Z,12.20
2019-01-21T04:47:57.656Z,12.20
2019-01-21T04:50:43.862Z,12.10
2019-01-21T04:54:05.566Z,12.10
2019-01-21T04:57:04.296Z,12.00
2019-01-21T05:00:14.739Z,12.10
2019-01-21T05:03:36.065Z,12.10
2019-01-21T05:06:51.314Z,12.00
2019-01-21T05:09:55.747Z,12.00
2019-01-21T05:12:55.599Z,12.00
2019-01-21T05:15:58.017Z,12.00
2019-01-21T05:19:15.965Z,12.00
2019-01-21T05:22:28.284Z,12.00
2019-01-21T05:25:43.130Z,12.00
2019-01-21T05:28:50.267Z,12.00
2019-01-21T05:31:49.902Z,12.00
2019-01-21T05:35:08.484Z,12.00
2019-01-21T05:38:09.221Z,12.00
2019-01-21T05:41:33.636Z,12.00
2019-01-21T05:44:29.560Z,12.00
2019-01-21T05:47:42.879Z,12.00
2019-01-21T05:51:05.997Z,12.00
2019-01-21T05:54:18.386Z,12.00
2019-01-21T05:57:30.747Z,12.00
2019-01-21T06:00:44.089Z,12.00
2019-01-21T06:03:51.402Z,12.00
2019-01-21T06:07:04.078Z,12.10
2019-01-21T06:09:47.948Z,12.10
2019-01-21T06:13:00.369Z,12.10
2019-01-21T06:16:09.990Z,12.00
2019-01-21T06:19:01.583Z,12.00
2019-01-21T06:22:12.619Z,12.00
2019-01-21T06:25:18.941Z,12.00
2019-01-21T06:28:19.784Z,12.00
2019-01-21T06:31:39.350Z,12.00
2019-01-21T06:34:59.272Z,11.90
2019-01-21T06:37:53.582Z,11.90
2019-01-21T06:41:08.872Z,11.90
2019-01-21T06:44:19.144Z,11.90
2019-01-21T06:47:46.438Z,11.90
2019-01-21T06:51:01.531Z,11.90
2019-01-21T06:54:18.010Z,11.80
2019-01-21T06:57:45.810Z,11.80
2019-01-21T07:00:58.654Z,11.80
2019-01-21T07:03:54.972Z,11.70
2019-01-21T07:07:16.666Z,11.70
2019-01-21T07:10:15.346Z,11.80
2019-01-21T07:13:36.323Z,11.80
2019-01-21T07:19:19.205Z,11.80
2019-01-21T07:22:24.111Z,11.80
2019-01-21T07:25:51.111Z,11.80
2019-01-21T07:28:51.467Z,11.80
2019-01-21T07:31:51.103Z,11.90
2019-01-21T07:34:42.441Z,11.90
2019-01-21T07:37:40.498Z,11.90
2019-01-21T07:40:48.143Z,11.90
2019-01-21T07:43:49.068Z,11.80
2019-01-21T07:47:13.311Z,11.80
2019-01-21T07:50:23.798Z,11.80
2019-01-21T07:53:22.922Z,11.80
2019-01-21T07:56:32.895Z,11.80
2019-01-21T08:00:00.297Z,11.80
2019-01-21T08:02:56.990Z,11.80
2019-01-21T08:06:12.550Z,11.80
2019-01-21T08:09:43.014Z,11.70
2019-01-21T08:12:51.197Z,11.70
2019-01-21T08:16:01.268Z,11.70
2019-01-21T08:19:09.877Z,11.80
2019-01-21T08:22:28.291Z,11.70
2019-01-21T08:25:47.371Z,11.70
2019-01-21T08:28:39.781Z,11.70
2019-01-21T08:31:40.265Z,11.70
2019-01-21T08:34:54.183Z,11.70
2019-01-21T08:37:49.188Z,11.70
2019-01-21T08:40:58.263Z,11.60
2019-01-21T08:44:16.689Z,11.70
2019-01-21T08:47:06.144Z,11.60
2019-01-21T08:49:57.756Z,11.60
2019-01-21T08:53:22.467Z,11.60
2019-01-21T08:56:48.796Z,11.60
2019-01-21T08:59:50.285Z,11.60
2019-01-21T09:02:59.864Z,11.60
2019-01-21T09:06:16.303Z,11.60
2019-01-21T09:09:30.097Z,11.60
2019-01-21T09:12:27.073Z,11.50
2019-01-21T09:15:15.771Z,11.50
2019-01-21T09:18:30.727Z,11.50
2019-01-21T09:21:15.650Z,11.50
2019-01-21T09:24:10.926Z,11.50
2019-01-21T09:27:13.779Z,11.50
2019-01-21T09:30:21.504Z,11.50
2019-01-21T09:33:15.727Z,11.50
2019-01-21T09:36:43.023Z,11.40
2019-01-21T09:40:03.925Z,11.40
2019-01-21T09:43:15.971Z,11.50
2019-01-21T09:46:23.299Z,11.40
2019-01-21T09:48:52.865Z,11.40
2019-01-21T09:51:26.837Z,11.40
2019-01-21T09:54:00.562Z,11.50
2019-01-21T09:56:36.071Z,11.40
2019-01-21T09:59:09.068Z,11.40
2019-01-21T10:01:42.206Z,11.40
2019-01-21T10:04:18.106Z,11.40
2019-01-21T10:07:19.532Z,11.40
2019-01-21T10:10:18.225Z,11.40
2019-01-21T10:13:23.377Z,11.30
2019-01-21T10:16:17.174Z,11.40
2019-01-21T10:19:07.183Z,11.40
2019-01-21T10:22:40.789Z,11.40
2019-01-21T10:25:43.182Z,11.40
2019-01-21T10:28:27.782Z,11.30
2019-01-21T10:31:45.893Z,11.40
2019-01-21T10:34:55.549Z,11.30
2019-01-21T10:38:10.884Z,11.30
2019-01-21T10:41:13.519Z,11.40
2019-01-21T10:44:13.671Z,11.40
2019-01-21T10:47:25.038Z,11.30
2019-01-21T10:50:30.636Z,11.30
2019-01-21T10:53:44.294Z,11.30
2019-01-21T10:56:49.249Z,11.30
2019-01-21T11:00:07.690Z,11.30
2019-01-21T11:03:32.319Z,11.30
2019-01-21T11:06:34.823Z,11.30
2019-01-21T11:09:39.380Z,11.30
2019-01-21T11:12:57.978Z,11.30
2019-01-21T11:16:03.700Z,11.20
2019-01-21T11:18:50.132Z,11.20
2019-01-21T11:21:58.852Z,11.20
2019-01-21T11:25:20.111Z,11.10
2019-01-21T11:28:39.972Z,11.10
2019-01-21T11:31:43.794Z,11.10
2019-01-21T11:34:44.933Z,11.10
2019-01-21T11:37:50.308Z,11.10
2019-01-21T11:40:50.354Z,11.10
2019-01-21T11:44:19.221Z,11.10
2019-01-21T11:47:31.641Z,11.10
2019-01-21T11:50:29.046Z,11.10
2019-01-21T11:53:40.766Z,11.10
2019-01-21T11:56:49.954Z,11.10
2019-01-21T11:59:44.251Z,11.10
2019-01-21T12:02:48.547Z,11.10
2019-01-21T12:05:50.787Z,11.10
2019-01-21T12:09:02.008Z,11.20
2019-01-21T12:11:59.283Z,11.20
2019-01-21T12:15:04.725Z,11.20
2019-01-21T12:18:34.905Z,11.30
2019-01-21T12:21:47.696Z,11.20
2019-01-21T12:25:00.672Z,11.20
2019-01-21T12:27:58.777Z,11.20
2019-01-21T12:31:13.234Z,11.20
2019-01-21T12:34:21.143Z,11.30
2019-01-21T12:37:29.848Z,11.20
2019-01-21T12:40:48.554Z,11.20
2019-01-21T12:43:47.847Z,11.20
2019-01-21T12:47:01.659Z,11.20
2019-01-21T12:50:16.481Z,11.20
2019-01-21T12:53:27.227Z,11.20
2019-01-21T12:56:45.587Z,11.10
2019-01-21T12:59:57.273Z,11.10
2019-01-21T13:06:24.345Z,11.10
2019-01-21T13:09:55.268Z,11.10
2019-01-21T13:13:27.551Z,11.20
2019-01-21T13:16:47.606Z,11.20
2019-01-21T13:20:03.857Z,11.20
2019-01-21T13:23:41.083Z,11.30
2019-01-21T13:27:03.065Z,11.30
2019-01-21T13:29:50.864Z,11.40
2019-01-21T13:32:55.260Z,11.40
2019-01-21T13:36:07.922Z,11.40
2019-01-21T13:39:12.695Z,11.40
2019-01-21T13:42:09.441Z,11.50
2019-01-21T13:45:33.930Z,11.50
2019-01-21T13:48:57.977Z,11.50
2019-01-21T13:52:03.851Z,11.60
2019-01-21T13:55:22.213Z,11.70
2019-01-21T13:58:49.610Z,11.80
2019-01-21T14:01:34.457Z,11.90
2019-01-21T14:04:39.319Z,12.10
2019-01-21T14:07:49.783Z,12.00
2019-01-21T14:11:05.291Z,12.30
2019-01-21T14:13:56.981Z,12.40
2019-01-21T14:17:06.847Z,12.30
2019-01-21T14:20:10.046Z,12.20
2019-01-21T14:22:56.983Z,12.20
2019-01-21T14:26:06.187Z,12.20
2019-01-21T14:29:11.694Z,12.30
2019-01-21T14:32:16.548Z,12.20
2019-01-21T14:35:47.064Z,12.40
2019-01-21T14:38:47.496Z,12.80
2019-01-21T14:41:59.357Z,12.70
2019-01-21T14:45:11.327Z,12.90
2019-01-21T14:48:14.186Z,13.00
2019-01-21T14:51:15.143Z,12.90
2019-01-21T14:54:49.554Z,13.00
2019-01-21T14:58:16.732Z,13.10
2019-01-21T15:01:42.884Z,13.00
2019-01-21T15:04:42.695Z,13.20
2019-01-21T15:07:46.676Z,13.70
2019-01-21T15:10:49.380Z,13.70
2019-01-21T15:13:52.946Z,14.00
2019-01-21T15:16:59.735Z,14.20
2019-01-21T15:20:32.522Z,14.40
2019-01-21T15:23:21.805Z,14.80
2019-01-21T15:26:46.294Z,15.70
2019-01-21T15:33:28.669Z,14.70
2019-01-21T15:36:21.652Z,15.10
2019-01-21T15:39:36.868Z,15.50
2019-01-21T15:43:03.868Z,15.40
2019-01-21T15:46:11.475Z,15.50
2019-01-21T15:53:10.739Z,15.90
2019-01-21T16:00:43.427Z,15.70
2019-01-21T16:04:07.526Z,16.10
2019-01-21T16:07:02.185Z,16.50
2019-01-21T16:10:14.406Z,17.40
2019-01-21T16:13:23.928Z,17.00
2019-01-21T16:16:33.633Z,16.90
2019-01-21T16:19:48.084Z,17.40
2019-01-21T16:23:14.834Z,17.70
2019-01-21T16:30:08.465Z,16.70
2019-01-21T16:33:31.658Z,17.00
2019-01-21T16:36:36.894Z,17.90
2019-01-21T16:50:34.832Z,17.90
2019-01-21T16:57:18.557Z,18.00
2019-01-21T17:00:10.403Z,17.70
2019-01-21T17:02:54.649Z,17.00
2019-01-21T17:06:14.201Z,17.00
2019-01-21T17:09:10.947Z,16.80
2019-01-21T17:14:43.526Z,17.70
2019-01-21T17:17:48.215Z,17.70
2019-01-21T17:20:25.881Z,18.30
2019-01-21T17:22:58.856Z,18.60
2019-01-21T17:25:38.333Z,19.30
2019-01-21T17:28:11.664Z,19.60
2019-01-21T17:30:44.828Z,19.70
2019-01-21T17:33:18.158Z,19.50
2019-01-21T17:35:51.417Z,19.30
2019-01-21T17:38:24.694Z,19.30
2019-01-21T17:40:58.086Z,19.50
2019-01-21T17:43:34.029Z,20.00
2019-01-21T17:46:08.969Z,19.50
2019-01-21T17:48:42.778Z,19.80
2019-01-21T17:51:16.543Z,18.90
2019-01-21T17:53:55.869Z,18.70
2019-01-21T17:56:29.262Z,19.00
2019-01-21T17:59:05.368Z,19.30
2019-01-21T18:01:46.537Z,19.50
2019-01-21T18:04:20.195Z,19.40
2019-01-21T18:06:57.781Z,19.90
2019-01-21T18:09:41.913Z,19.50
2019-01-21T18:12:27.634Z,20.10
2019-01-21T18:15:00.995Z,19.70
2019-01-21T18:17:34.339Z,19.60
2019-01-21T18:20:09.684Z,19.60
2019-01-21T18:22:43.253Z,19.50
2019-01-21T18:25:18.135Z,19.30
2019-01-21T18:27:53.050Z,19.50
2019-01-21T18:30:28.852Z,19.10
2019-01-21T18:33:02.317Z,18.70
2019-01-21T18:35:35.849Z,18.90
2019-01-21T18:38:12.143Z,19.40
2019-01-21T18:40:47.241Z,19.30
2019-01-21T18:43:20.460Z,18.70
2019-01-21T18:46:06.643Z,19.30
2019-01-21T18:48:47.022Z,20.20
2019-01-21T18:51:20.626Z,20.60
2019-01-21T18:53:53.929Z,20.30
2019-01-21T18:56:27.085Z,20.50
2019-01-21T18:59:00.591Z,19.70
2019-01-21T19:02:13.500Z,19.70
2019-01-21T19:04:47.014Z,20.00
2019-01-21T19:07:20.328Z,20.60
2019-01-21T19:09:56.251Z,19.40
2019-01-21T19:13:08.760Z,19.00
2019-01-21T19:15:45.519Z,18.50
2019-01-21T19:22:05.933Z,19.30
2019-01-21T19:25:16.757Z,19.90
2019-01-21T19:28:08.454Z,19.50
2019-01-21T19:30:50.256Z,19.50
2019-01-21T19:33:24.135Z,19.10
2019-01-21T19:35:57.656Z,19.00
2019-01-21T19:38:31.402Z,19.50
2019-01-21T19:41:05.023Z,20.00
2019-01-21T19:43:38.759Z,20.10
2019-01-21T19:46:13.459Z,19.50
2019-01-21T19:48:46.962Z,19.10
2019-01-21T19:51:20.398Z,19.60
2019-01-21T19:53:54.142Z,20.20
2019-01-21T19:56:30.193Z,20.90
2019-01-21T19:59:06.178Z,20.90
2019-01-21T20:01:39.680Z,20.50
2019-01-21T20:04:18.645Z,20.20
2019-01-21T20:06:54.380Z,19.90
2019-01-21T20:09:32.455Z,19.80
2019-01-21T20:12:09.055Z,19.10
2019-01-21T20:14:44.690Z,19.20
2019-01-21T20:17:19.498Z,19.50
2019-01-21T20:19:55.063Z,19.10
2019-01-21T20:22:35.884Z,19.20
2019-01-21T20:25:16.134Z,19.20
2019-01-21T20:27:54.481Z,19.40
2019-01-21T20:30:46.667Z,19.40
2019-01-21T20:33:20.369Z,19.70
2019-01-21T20:36:01.499Z,19.60
2019-01-21T20:38:31.865Z,19.70
2019-01-21T20:41:08.795Z,19.60
2019-01-21T20:43:42.765Z,19.70
2019-01-21T20:46:19.272Z,19.50
2019-01-21T20:49:03.477Z,19.20
2019-01-21T20:51:41.765Z,19.20
2019-01-21T20:54:18.805Z,19.30
2019-01-21T20:56:55.421Z,19.60
2019-01-21T20:59:39.254Z,19.00
2019-01-21T21:03:14.695Z,18.70
2019-01-21T21:06:34.610Z,19.50
2019-01-21T21:09:38.142Z,19.70
2019-01-21T21:12:25.927Z,19.20
2019-01-21T21:15:07.616Z,18.50
2019-01-21T21:17:53.044Z,18.40
2019-01-21T21:20:37.914Z,18.50
2019-01-21T21:23:24.785Z,18.70
2019-01-21T21:26:09.954Z,18.80
2019-01-21T21:28:45.809Z,18.60
2019-01-21T21:31:26.221Z,18.40
2019-01-21T21:34:00.434Z,18.10
2019-01-21T21:36:35.839Z,18.00
2019-01-21T21:39:50.990Z,18.00
2019-01-21T21:42:55.445Z,18.00
2019-01-21T21:45:39.744Z,18.30
2019-01-21T21:48:42.966Z,18.90
2019-01-21T21:51:37.669Z,19.00
2019-01-21T21:54:22.335Z,19.10
2019-01-21T21:56:58.666Z,19.50
2019-01-21T21:59:33.826Z,19.10
2019-01-21T22:02:17.669Z,19.30
2019-01-21T22:05:20.373Z,19.30
2019-01-21T22:07:53.621Z,19.10
2019-01-21T22:10:45.826Z,19.20
2019-01-21T22:13:37.384Z,19.20
2019-01-21T22:16:12.324Z,18.90
2019-01-21T22:18:50.816Z,18.70
2019-01-21T22:21:25.310Z,18.40
2019-01-21T22:24:00.932Z,18.60
2019-01-21T22:29:39.540Z,18.60
2019-01-21T22:32:20.910Z,18.10
2019-01-21T22:35:04.099Z,18.10
2019-01-21T22:38:04.677Z,18.10
2019-01-21T22:40:51.544Z,18.10
2019-01-21T22:43:26.475Z,18.00
2019-01-21T22:46:10.518Z,18.10
2019-01-21T22:48:49.507Z,18.00
2019-01-21T22:51:34.021Z,17.80
2019-01-21T22:54:51.452Z,17.60
2019-01-21T22:57:40.547Z,17.40
2019-01-21T23:00:47.786Z,17.20
2019-01-21T23:03:23.167Z,17.10
2019-01-21T23:05:58.958Z,17.00
2019-01-21T23:11:39.884Z,16.80
2019-01-21T23:14:15.317Z,16.60
2019-01-21T23:16:51.623Z,16.30
2019-01-21T23:19:28.967Z,16.20
2019-01-21T23:22:19.487Z,16.10
2019-01-21T23:25:09.778Z,16.00
2019-01-21T23:27:50.308Z,15.80
2019-01-21T23:30:34.767Z,15.70
2019-01-21T23:33:29.519Z,15.60
2019-01-21T23:36:13.782Z,15.60
2019-01-21T23:38:50.847Z,15.50
2019-01-21T23:41:32.066Z,15.30
2019-01-21T23:44:14.437Z,15.20
2019-01-21T23:46:53.993Z,14.90
2019-01-21T23:49:32.923Z,14.90
2019-01-21T23:52:29.126Z,14.90
2019-01-21T23:55:07.862Z,14.70
2019-01-21T23:58:01.003Z,14.60
